createdAt,value
2018-04-30T00:01:58.646Z,100573.58
2018-04-30T00:05:01.966Z,100580.61
2018-04-30T00:08:05.279Z,100562.89
2018-04-30T00:11:09.382Z,100564.72
2018-04-30T00:14:12.693Z,100555.67
2018-04-30T00:17:16.760Z,100558.20
2018-04-30T00:20:20.072Z,100550.45
2018-04-30T00:23:23.400Z,100544.00
2018-04-30T00:26:27.471Z,100539.16
2018-04-30T00:29:30.780Z,100515.98
2018-04-30T00:32:34.105Z,100519.06
2018-04-30T00:35:38.164Z,100517.84
2018-04-30T00:38:41.495Z,100510.16
2018-04-30T00:41:44.796Z,100490.05
2018-04-30T00:44:48.118Z,100496.00
2018-04-30T00:47:52.185Z,100489.16
2018-04-30T00:50:55.532Z,100471.13
2018-04-30T00:53:59.589Z,100480.30
2018-04-30T00:57:02.917Z,100480.45
2018-04-30T01:00:06.222Z,100480.64
2018-04-30T01:03:10.306Z,100471.73
2018-04-30T01:06:13.607Z,100470.55
2018-04-30T01:09:16.937Z,100460.10
2018-04-30T01:12:21.000Z,100451.01
2018-04-30T01:15:24.329Z,100456.27
2018-04-30T01:18:27.625Z,100442.20
2018-04-30T01:21:30.950Z,100428.14
2018-04-30T01:24:34.250Z,100417.03
2018-04-30T01:27:37.569Z,100412.58
2018-04-30T01:30:40.880Z,100407.20
2018-04-30T01:33:44.177Z,100378.72
2018-04-30T01:36:47.508Z,100387.84
2018-04-30T01:39:51.577Z,100373.41
2018-04-30T01:42:54.887Z,100364.19
2018-04-30T01:45:58.201Z,100354.86
2018-04-30T01:49:01.507Z,100353.66
2018-04-30T01:52:04.830Z,100361.72
2018-04-30T01:55:08.129Z,100351.55
2018-04-30T01:58:11.457Z,100339.80
2018-04-30T02:01:14.757Z,100333.05
2018-04-30T02:04:18.081Z,100307.94
2018-04-30T02:07:21.382Z,100309.71
2018-04-30T02:10:24.705Z,100300.91
2018-04-30T02:13:28.001Z,100286.69
2018-04-30T02:16:31.334Z,100283.55
2018-04-30T02:19:34.629Z,100283.84
2018-04-30T02:22:37.937Z,100274.10
2018-04-30T02:25:41.253Z,100253.08
2018-04-30T02:28:44.553Z,100235.12
2018-04-30T02:31:47.874Z,100221.05
2018-04-30T02:34:51.945Z,100225.47
2018-04-30T02:37:55.275Z,100219.45
2018-04-30T02:40:59.346Z,100210.96
2018-04-30T02:44:02.652Z,100203.57
2018-04-30T02:47:05.981Z,100199.16
2018-04-30T02:50:10.049Z,100174.10
2018-04-30T02:53:13.361Z,100181.42
2018-04-30T02:56:16.661Z,100173.79
2018-04-30T02:59:20.001Z,100165.25
2018-04-30T03:02:24.064Z,100165.64
2018-04-30T03:05:27.389Z,100147.17
2018-04-30T03:08:30.691Z,100137.11
2018-04-30T03:11:34.011Z,100132.52
2018-04-30T03:14:37.312Z,100128.20
2018-04-30T03:17:40.633Z,100120.50
2018-04-30T03:20:43.930Z,100115.69
2018-04-30T03:23:48.017Z,100109.48
2018-04-30T03:26:51.346Z,100110.75
2018-04-30T03:29:54.712Z,100121.93
2018-04-30T03:32:58.087Z,100120.26
2018-04-30T03:36:02.317Z,100117.61
2018-04-30T03:39:06.394Z,100112.94
2018-04-30T03:42:09.729Z,100098.62
2018-04-30T03:45:13.801Z,100090.53
2018-04-30T03:48:17.140Z,100097.78
2018-04-30T03:51:21.216Z,100072.25
2018-04-30T03:54:24.654Z,100055.29
2018-04-30T03:57:27.965Z,100028.81
2018-04-30T04:00:49.040Z,100028.67
2018-04-30T04:04:09.961Z,100019.89
2018-04-30T04:07:13.301Z,100004.88
2018-04-30T04:10:16.605Z,100004.39
2018-04-30T04:13:19.944Z,99999.13
2018-04-30T04:16:23.253Z,100000.66
2018-04-30T04:19:27.351Z,99979.18
2018-04-30T04:22:30.662Z,99967.75
2018-04-30T04:25:34.833Z,99986.08
2018-04-30T04:28:38.222Z,99975.30
2018-04-30T04:31:41.513Z,99958.58
2018-04-30T04:34:44.828Z,99990.75
2018-04-30T04:37:48.177Z,99987.29
2018-04-30T04:40:52.265Z,99989.08
2018-04-30T04:43:55.597Z,99978.19
2018-04-30T04:46:58.905Z,99955.08
2018-04-30T04:50:02.219Z,99943.05
2018-04-30T04:53:05.522Z,99931.64
2018-04-30T04:56:08.833Z,99906.08
2018-04-30T04:59:12.139Z,99904.50
2018-04-30T05:02:15.497Z,99904.19
2018-04-30T05:05:19.536Z,99893.84
2018-04-30T05:08:22.886Z,99884.02
2018-04-30T05:11:26.196Z,99892.91
2018-04-30T05:14:29.511Z,99875.97
2018-04-30T05:17:32.817Z,99889.66
2018-04-30T05:20:36.130Z,99871.92
2018-04-30T05:23:39.445Z,99887.19
2018-04-30T05:26:43.521Z,99886.54
2018-04-30T05:29:46.858Z,99898.75
2018-04-30T05:32:50.942Z,99886.09
2018-04-30T05:35:54.265Z,99857.23
2018-04-30T05:38:58.340Z,99808.02
2018-04-30T05:42:01.677Z,99784.19
2018-04-30T05:45:05.750Z,99791.08
2018-04-30T05:48:09.168Z,99767.70
2018-04-30T05:51:13.161Z,99789.28
2018-04-30T05:54:16.485Z,99730.92
2018-04-30T05:57:19.785Z,99750.36
2018-04-30T06:00:23.106Z,99712.74
2018-04-30T06:03:27.174Z,99696.20
2018-04-30T06:06:30.498Z,99695.18
2018-04-30T06:09:33.799Z,99689.56
2018-04-30T06:12:37.128Z,99659.57
2018-04-30T06:15:40.430Z,99687.02
2018-04-30T06:18:43.756Z,99663.83
2018-04-30T06:21:47.060Z,99634.36
2018-04-30T06:24:52.008Z,99645.75
2018-04-30T06:27:56.109Z,99640.75
2018-04-30T06:30:59.446Z,99642.95
2018-04-30T06:34:03.517Z,99633.60
2018-04-30T06:37:06.833Z,99658.48
2018-04-30T06:40:11.086Z,99649.76
2018-04-30T06:43:14.393Z,99602.82
2018-04-30T06:46:17.708Z,99632.16
2018-04-30T06:49:21.009Z,99654.27
2018-04-30T06:52:24.352Z,99669.54
2018-04-30T06:55:28.422Z,99750.37
2018-04-30T06:58:31.773Z,99867.46
2018-04-30T07:01:35.844Z,99887.30
2018-04-30T07:04:39.161Z,99923.64
2018-04-30T07:07:43.249Z,99944.51
2018-04-30T07:10:46.562Z,99985.05
2018-04-30T07:13:49.881Z,100002.53
2018-04-30T07:16:53.963Z,99967.34
2018-04-30T07:19:57.342Z,99965.63
2018-04-30T07:23:01.370Z,99977.87
2018-04-30T07:26:04.697Z,99977.92
2018-04-30T07:29:08.005Z,99999.70
2018-04-30T07:32:12.101Z,100016.10
2018-04-30T07:35:15.415Z,100051.42
2018-04-30T07:38:19.497Z,100046.83
2018-04-30T07:41:22.818Z,99992.00
2018-04-30T07:44:26.128Z,99842.47
2018-04-30T07:47:30.205Z,99845.47
2018-04-30T07:50:33.505Z,99865.72
2018-04-30T07:53:36.820Z,99888.88
2018-04-30T07:56:40.888Z,99936.41
2018-04-30T07:59:44.229Z,99919.10
2018-04-30T08:02:47.537Z,99893.90
2018-04-30T08:05:51.618Z,99824.57
2018-04-30T08:08:54.929Z,99825.83
2018-04-30T08:11:58.248Z,99788.94
2018-04-30T08:15:02.314Z,99762.88
2018-04-30T08:18:05.649Z,99742.00
2018-04-30T08:21:09.717Z,99729.84
2018-04-30T08:24:13.040Z,99713.97
2018-04-30T08:27:16.345Z,99741.98
2018-04-30T08:30:19.665Z,99769.72
2018-04-30T08:33:23.733Z,99799.70
2018-04-30T08:36:27.046Z,99770.94
2018-04-30T08:39:30.351Z,99736.30
2018-04-30T08:42:33.677Z,99684.45
2018-04-30T08:45:36.988Z,99657.72
2018-04-30T08:48:40.308Z,99661.27
2018-04-30T08:51:43.609Z,99732.75
2018-04-30T08:54:46.934Z,99728.88
2018-04-30T08:57:50.237Z,99730.42
2018-04-30T09:00:53.560Z,99728.69
2018-04-30T09:03:56.868Z,99704.63
2018-04-30T09:07:00.203Z,99711.13
2018-04-30T09:10:03.505Z,99704.14
2018-04-30T09:13:06.841Z,99721.35
2018-04-30T09:16:10.145Z,99723.98
2018-04-30T09:19:13.468Z,99711.32
2018-04-30T09:22:17.874Z,99705.90
2018-04-30T09:25:21.202Z,99698.83
2018-04-30T09:28:24.502Z,99694.33
2018-04-30T09:31:27.834Z,99707.10
2018-04-30T09:34:31.902Z,99707.23
2018-04-30T09:37:35.229Z,99727.77
2018-04-30T09:40:38.537Z,99725.32
2018-04-30T09:43:42.625Z,99711.87
2018-04-30T09:46:45.937Z,99716.86
2018-04-30T09:49:49.277Z,99715.70
2018-04-30T09:52:52.584Z,99709.19
2018-04-30T09:55:55.918Z,99711.61
2018-04-30T09:58:59.217Z,99710.24
2018-04-30T10:02:02.546Z,99697.00
2018-04-30T10:05:06.613Z,99698.82
2018-04-30T10:08:09.959Z,99697.00
2018-04-30T10:11:13.265Z,99701.91
2018-04-30T10:14:16.584Z,99697.83
2018-04-30T10:17:19.890Z,99690.82
2018-04-30T10:20:23.210Z,99686.73
2018-04-30T10:23:26.610Z,99688.41
2018-04-30T10:26:30.606Z,99689.20
2018-04-30T10:29:33.931Z,99686.73
2018-04-30T10:32:38.013Z,99672.28
2018-04-30T10:35:41.352Z,99679.89
2018-04-30T10:38:45.420Z,99681.14
2018-04-30T10:41:48.758Z,99679.16
2018-04-30T10:44:52.825Z,99679.26
2018-04-30T10:47:56.145Z,99684.44
2018-04-30T10:50:59.470Z,99692.86
2018-04-30T10:54:03.541Z,99687.56
2018-04-30T10:57:06.867Z,99702.75
2018-04-30T11:00:10.173Z,99699.50
2018-04-30T11:03:14.250Z,99691.45
2018-04-30T11:06:17.573Z,99686.94
2018-04-30T11:09:20.893Z,99679.72
2018-04-30T11:12:24.227Z,99694.59
2018-04-30T11:15:27.541Z,99689.03
2018-04-30T11:18:30.869Z,99685.74
2018-04-30T11:21:34.940Z,99685.06
2018-04-30T11:24:38.276Z,99674.86
2018-04-30T11:27:41.684Z,99684.02
2018-04-30T11:30:44.949Z,99688.41
2018-04-30T11:33:48.257Z,99688.94
2018-04-30T11:36:52.361Z,99690.34
2018-04-30T11:39:56.068Z,99682.59
2018-04-30T11:42:59.411Z,99679.77
2018-04-30T11:46:02.742Z,99689.40
2018-04-30T11:49:06.093Z,99679.56
2018-04-30T11:52:14.577Z,99691.28
2018-04-30T11:55:18.025Z,99686.52
2018-04-30T11:58:21.340Z,99691.53
2018-04-30T12:01:24.685Z,99696.81
2018-04-30T12:04:28.776Z,99693.63
2018-04-30T12:07:32.103Z,99693.20
2018-04-30T12:10:36.189Z,99685.98
2018-04-30T12:13:39.546Z,99690.59
2018-04-30T12:16:42.873Z,99695.91
2018-04-30T12:19:51.773Z,99690.22
2018-04-30T12:23:00.470Z,99690.95
2018-04-30T12:26:06.221Z,99696.09
2018-04-30T12:29:12.448Z,99695.77
2018-04-30T12:32:15.961Z,99700.01
2018-04-30T12:35:19.279Z,99702.88
2018-04-30T12:38:23.390Z,99711.98
2018-04-30T12:41:32.465Z,99720.92
2018-04-30T12:44:36.614Z,99729.19
2018-04-30T12:47:39.937Z,99719.34
2018-04-30T12:50:44.077Z,99736.42
2018-04-30T12:53:47.349Z,99741.59
2018-04-30T12:56:51.466Z,99744.05
2018-04-30T12:59:55.553Z,99750.70
2018-04-30T13:02:58.885Z,99762.67
2018-04-30T13:06:02.205Z,99768.97
2018-04-30T13:09:06.274Z,99772.91
2018-04-30T13:12:09.585Z,99760.72
2018-04-30T13:15:12.905Z,99760.36
2018-04-30T13:18:16.237Z,99760.86
2018-04-30T13:21:19.546Z,99772.06
2018-04-30T13:24:22.869Z,99774.58
2018-04-30T13:27:26.169Z,99778.13
2018-04-30T13:30:30.265Z,99772.38
2018-04-30T13:33:33.569Z,99780.44
2018-04-30T13:36:36.894Z,99781.91
2018-04-30T13:39:40.197Z,99788.09
2018-04-30T13:42:43.529Z,99786.70
2018-04-30T13:45:46.829Z,99787.65
2018-04-30T13:48:50.154Z,99789.17
2018-04-30T13:51:53.458Z,99796.59
2018-04-30T13:54:57.573Z,99799.34
2018-04-30T13:58:01.647Z,99800.17
2018-04-30T14:01:04.965Z,99795.41
2018-04-30T14:04:08.271Z,99800.94
2018-04-30T14:07:11.614Z,99797.66
2018-04-30T14:10:14.913Z,99785.17
2018-04-30T14:13:18.229Z,99785.96
2018-04-30T14:16:21.537Z,99782.20
2018-04-30T14:19:24.857Z,99778.23
2018-04-30T14:22:28.158Z,99775.42
2018-04-30T14:25:32.236Z,99777.31
2018-04-30T14:28:35.553Z,99775.42
2018-04-30T14:31:38.899Z,99781.22
2018-04-30T14:34:42.194Z,99779.08
2018-04-30T14:37:45.519Z,99779.70
2018-04-30T14:40:48.829Z,99781.33
2018-04-30T14:43:52.150Z,99780.44
2018-04-30T14:46:56.213Z,99776.42
2018-04-30T14:50:00.307Z,99777.56
2018-04-30T14:53:03.619Z,99787.48
2018-04-30T14:56:06.930Z,99789.45
2018-04-30T14:59:10.236Z,99795.93
2018-04-30T15:02:13.571Z,99800.29
2018-04-30T15:05:17.642Z,99806.69
2018-04-30T15:08:20.958Z,99813.80
2018-04-30T15:11:24.266Z,99814.61
2018-04-30T15:14:27.579Z,99799.53
2018-04-30T15:17:31.660Z,99802.18
2018-04-30T15:20:34.969Z,99800.78
2018-04-30T15:23:38.293Z,99801.16
2018-04-30T15:26:42.361Z,99810.97
2018-04-30T15:29:45.695Z,99811.19
2018-04-30T15:32:49.773Z,99821.79
2018-04-30T15:35:53.130Z,99810.04
2018-04-30T15:38:56.429Z,99814.50
2018-04-30T15:41:59.784Z,99802.92
2018-04-30T15:45:03.151Z,99808.47
2018-04-30T15:48:06.488Z,99814.33
2018-04-30T15:51:10.568Z,99816.80
2018-04-30T15:54:13.902Z,99819.30
2018-04-30T15:57:17.972Z,99822.19
2018-04-30T16:00:21.293Z,99814.27
2018-04-30T16:03:24.604Z,99816.84
2018-04-30T16:06:27.937Z,99812.07
2018-04-30T16:09:31.241Z,99815.40
2018-04-30T16:12:34.583Z,99813.95
2018-04-30T16:15:37.887Z,99806.61
2018-04-30T16:18:41.209Z,99806.05
2018-04-30T16:21:44.513Z,99797.18
2018-04-30T16:24:47.841Z,99808.13
2018-04-30T16:27:51.146Z,99803.95
2018-04-30T16:30:54.464Z,99811.45
2018-04-30T16:33:57.760Z,99809.30
2018-04-30T16:37:01.076Z,99803.63
2018-04-30T16:40:05.141Z,99797.25
2018-04-30T16:43:08.453Z,99803.56
2018-04-30T16:46:11.745Z,99807.83
2018-04-30T16:49:15.058Z,99810.98
2018-04-30T16:52:18.356Z,99811.80
2018-04-30T16:55:21.693Z,99814.29
2018-04-30T16:58:25.014Z,99815.65
2018-04-30T17:01:28.309Z,99815.23
2018-04-30T17:04:31.627Z,99812.79
2018-04-30T17:07:35.003Z,99811.58
2018-04-30T17:10:38.363Z,99817.98
2018-04-30T17:13:42.413Z,99820.72
2018-04-30T17:16:45.728Z,99810.50
2018-04-30T17:19:49.030Z,99821.83
2018-04-30T17:22:52.340Z,99821.27
2018-04-30T17:25:55.673Z,99824.30
2018-04-30T17:28:58.986Z,99819.66
2018-04-30T17:32:02.309Z,99826.61
2018-04-30T17:35:05.614Z,99827.83
2018-04-30T17:38:09.242Z,99823.86
2018-04-30T17:41:13.343Z,99837.94
2018-04-30T17:44:16.675Z,99838.06
2018-04-30T17:47:19.970Z,99832.70
2018-04-30T17:50:23.285Z,99836.08
2018-04-30T17:53:26.597Z,99832.91
2018-04-30T17:56:29.929Z,99833.45
2018-04-30T17:59:33.237Z,99839.29
2018-04-30T18:02:36.565Z,99839.38
2018-04-30T18:05:39.875Z,99843.05
2018-04-30T18:08:43.214Z,99849.01
2018-04-30T18:11:46.659Z,99849.80
2018-04-30T18:14:49.990Z,99854.13
2018-04-30T18:17:53.321Z,99850.25
2018-04-30T18:20:56.636Z,99860.06
2018-04-30T18:23:59.987Z,99858.25
2018-04-30T18:27:03.306Z,99856.98
2018-04-30T18:30:07.406Z,99860.25
2018-04-30T18:33:10.746Z,99860.09
2018-04-30T18:36:14.839Z,99865.66
2018-04-30T18:39:18.918Z,99868.92
2018-04-30T18:42:22.234Z,99862.73
2018-04-30T18:45:25.599Z,99858.75
2018-04-30T18:48:28.885Z,99855.03
2018-04-30T18:51:32.194Z,99860.17
2018-04-30T18:54:35.513Z,99855.34
2018-04-30T18:57:38.816Z,99864.58
2018-04-30T19:00:42.125Z,99872.06
2018-04-30T19:03:46.190Z,99865.92
2018-04-30T19:06:49.521Z,99867.14
2018-04-30T19:09:52.827Z,99871.22
2018-04-30T19:12:56.921Z,99894.30
2018-04-30T19:16:00.221Z,99889.73
2018-04-30T19:19:03.541Z,99888.73
2018-04-30T19:22:07.608Z,99898.76
2018-04-30T19:25:10.917Z,99897.38
2018-04-30T19:28:14.212Z,99900.40
2018-04-30T19:31:17.526Z,99906.65
2018-04-30T19:34:20.825Z,99904.27
2018-04-30T19:37:24.154Z,99905.62
2018-04-30T19:40:27.458Z,99918.09
2018-04-30T19:43:30.781Z,99908.92
2018-04-30T19:46:34.077Z,99917.73
2018-04-30T19:49:37.458Z,99917.30
2018-04-30T19:52:40.763Z,99927.72
2018-04-30T19:55:44.073Z,99925.31
2018-04-30T19:58:47.412Z,99930.58
2018-04-30T20:01:50.719Z,99923.30
2018-04-30T20:04:54.784Z,99922.55
2018-04-30T20:07:58.094Z,99924.09
2018-04-30T20:11:01.422Z,99923.07
2018-04-30T20:14:04.728Z,99925.52
2018-04-30T20:17:08.817Z,99930.88
2018-04-30T20:20:12.126Z,99928.08
2018-04-30T20:23:16.221Z,99931.23
2018-04-30T20:26:19.535Z,99925.43
2018-04-30T20:29:22.865Z,99926.72
2018-04-30T20:32:26.160Z,99924.76
2018-04-30T20:35:29.481Z,99922.23
2018-04-30T20:38:32.785Z,99914.99
2018-04-30T20:41:36.106Z,99915.50
2018-04-30T20:44:39.413Z,99909.01
2018-04-30T20:47:42.733Z,99907.79
2018-04-30T20:50:46.037Z,99914.02
2018-04-30T20:53:49.360Z,99906.62
2018-04-30T20:56:52.666Z,99910.41
2018-04-30T20:59:55.990Z,99913.16
2018-04-30T21:02:59.297Z,99906.42
2018-04-30T21:06:03.373Z,99914.09
2018-04-30T21:09:13.190Z,99909.41
2018-04-30T21:12:16.501Z,99914.12
2018-04-30T21:15:19.813Z,99908.21
2018-04-30T21:18:23.125Z,99911.05
2018-04-30T21:21:26.433Z,99919.67
2018-04-30T21:24:29.809Z,99915.13
2018-04-30T21:27:33.841Z,99920.81
2018-04-30T21:30:37.170Z,99918.45
2018-04-30T21:33:40.478Z,99918.16
2018-04-30T21:36:43.794Z,99918.75
2018-04-30T21:39:47.102Z,99918.42
2018-04-30T21:42:50.422Z,99915.23
2018-04-30T21:45:53.710Z,99915.14
2018-04-30T21:48:57.033Z,99913.58
2018-04-30T21:52:01.099Z,99925.47
2018-04-30T21:55:04.414Z,99919.70
2018-04-30T21:58:07.932Z,99918.66
2018-04-30T22:01:11.241Z,99918.70
2018-04-30T22:04:15.306Z,99912.77
2018-04-30T22:07:18.612Z,99905.59
2018-04-30T22:10:21.933Z,99903.69
2018-04-30T22:13:25.224Z,99904.75
2018-04-30T22:16:28.528Z,99906.73
2018-04-30T22:19:31.816Z,99907.67
2018-04-30T22:22:35.149Z,99910.36
2018-04-30T22:25:38.441Z,99909.25
2018-04-30T22:28:42.505Z,99910.36
2018-04-30T22:31:45.824Z,99910.14
2018-04-30T22:34:49.108Z,99902.14
2018-04-30T22:37:52.426Z,99905.55
2018-04-30T22:40:56.476Z,99900.30
2018-04-30T22:43:59.789Z,99891.78
2018-04-30T22:47:03.087Z,99893.72
2018-04-30T22:50:06.386Z,99889.66
2018-04-30T22:53:09.681Z,99885.83
2018-04-30T22:56:12.985Z,99882.17
2018-04-30T22:59:16.293Z,99878.03
2018-04-30T23:02:19.589Z,99877.48
2018-04-30T23:05:22.912Z,99868.53
2018-04-30T23:08:26.205Z,99870.94
2018-04-30T23:11:30.280Z,99861.92
2018-04-30T23:14:33.575Z,99866.06
2018-04-30T23:17:36.881Z,99863.52
2018-04-30T23:20:40.164Z,99862.61
2018-04-30T23:23:43.477Z,99860.87
2018-04-30T23:26:46.765Z,99860.34
2018-04-30T23:29:50.085Z,99859.42
2018-04-30T23:32:53.373Z,99849.51
2018-04-30T23:35:56.685Z,99844.29
2018-04-30T23:39:00.002Z,99843.34
2018-04-30T23:42:03.297Z,99842.41
2018-04-30T23:45:07.370Z,99840.87
2018-04-30T23:48:10.657Z,99842.58
2018-04-30T23:51:13.976Z,99838.89
2018-04-30T23:54:17.260Z,99842.41
2018-04-30T23:57:20.572Z,99839.13
